sensor_id;sensor_type;location;lat;lon;timestamp;temperature;humidity
68977;SHT31;56029;52.568;13.588;2023-12-07T00:00:01;1.53;99.99
68977;SHT31;56029;52.568;13.588;2023-12-07T00:02:27;1.53;99.99
68977;SHT31;56029;52.568;13.588;2023-12-07T00:04:53;1.52;99.99
68977;SHT31;56029;52.568;13.588;2023-12-07T00:07:19;1.50;99.99
68977;SHT31;56029;52.568;13.588;2023-12-07T00:09:44;1.53;99.99
68977;SHT31;56029;52.568;13.588;2023-12-07T00:12:10;1.56;99.99
68977;SHT31;56029;52.568;13.588;2023-12-07T00:14:35;1.57;99.99
68977;SHT31;56029;52.568;13.588;2023-12-07T00:17:01;1.56;99.99
68977;SHT31;56029;52.568;13.588;2023-12-07T00:19:26;1.53;99.99
68977;SHT31;56029;52.568;13.588;2023-12-07T00:21:52;1.54;99.99
68977;SHT31;56029;52.568;13.588;2023-12-07T00:24:17;1.54;99.99
68977;SHT31;56029;52.568;13.588;2023-12-07T00:26:43;1.54;99.99
68977;SHT31;56029;52.568;13.588;2023-12-07T00:29:08;1.53;99.99
68977;SHT31;56029;52.568;13.588;2023-12-07T00:31:34;1.54;99.99
68977;SHT31;56029;52.568;13.588;2023-12-07T00:33:59;1.50;99.99
68977;SHT31;56029;52.568;13.588;2023-12-07T00:36:25;1.49;99.99
68977;SHT31;56029;52.568;13.588;2023-12-07T00:38:50;1.46;99.99
68977;SHT31;56029;52.568;13.588;2023-12-07T00:41:16;1.46;99.99
68977;SHT31;56029;52.568;13.588;2023-12-07T00:43:41;1.46;99.99
68977;SHT31;56029;52.568;13.588;2023-12-07T00:46:07;1.44;99.99
68977;SHT31;56029;52.568;13.588;2023-12-07T00:48:33;1.49;99.99
68977;SHT31;56029;52.568;13.588;2023-12-07T00:50:58;1.49;99.99
68977;SHT31;56029;52.568;13.588;2023-12-07T00:53:24;1.49;99.99
68977;SHT31;56029;52.568;13.588;2023-12-07T00:55:49;1.52;99.99
68977;SHT31;56029;52.568;13.588;2023-12-07T00:58:15;1.50;99.99
68977;SHT31;56029;52.568;13.588;2023-12-07T01:00:40;1.49;99.99
68977;SHT31;56029;52.568;13.588;2023-12-07T01:03:06;1.47;99.99
68977;SHT31;56029;52.568;13.588;2023-12-07T01:05:32;1.47;99.99
68977;SHT31;56029;52.568;13.588;2023-12-07T01:07:57;1.50;99.99
68977;SHT31;56029;52.568;13.588;2023-12-07T01:10:23;1.46;99.99
68977;SHT31;56029;52.568;13.588;2023-12-07T01:12:48;1.43;99.99
68977;SHT31;56029;52.568;13.588;2023-12-07T01:15:14;1.44;99.99
68977;SHT31;56029;52.568;13.588;2023-12-07T01:17:39;1.42;99.99
68977;SHT31;56029;52.568;13.588;2023-12-07T01:20:06;1.43;99.99
68977;SHT31;56029;52.568;13.588;2023-12-07T01:22:31;1.46;99.99
68977;SHT31;56029;52.568;13.588;2023-12-07T01:24:57;1.43;99.99
68977;SHT31;56029;52.568;13.588;2023-12-07T01:27:22;1.46;99.99
68977;SHT31;56029;52.568;13.588;2023-12-07T01:29:48;1.47;99.99
68977;SHT31;56029;52.568;13.588;2023-12-07T01:32:13;1.50;99.99
68977;SHT31;56029;52.568;13.588;2023-12-07T01:34:39;1.49;99.99
68977;SHT31;56029;52.568;13.588;2023-12-07T01:37:04;1.50;99.99
68977;SHT31;56029;52.568;13.588;2023-12-07T01:39:30;1.44;99.99
68977;SHT31;56029;52.568;13.588;2023-12-07T01:41:55;1.44;99.99
68977;SHT31;56029;52.568;13.588;2023-12-07T01:44:21;1.46;99.99
68977;SHT31;56029;52.568;13.588;2023-12-07T01:46:47;1.42;99.99
68977;SHT31;56029;52.568;13.588;2023-12-07T01:49:12;1.44;99.99
68977;SHT31;56029;52.568;13.588;2023-12-07T01:51:38;1.42;99.99
68977;SHT31;56029;52.568;13.588;2023-12-07T01:54:03;1.44;99.99
68977;SHT31;56029;52.568;13.588;2023-12-07T01:56:29;1.44;99.99
68977;SHT31;56029;52.568;13.588;2023-12-07T01:58:55;1.46;99.99
68977;SHT31;56029;52.568;13.588;2023-12-07T02:01:21;1.47;99.99
68977;SHT31;56029;52.568;13.588;2023-12-07T02:03:46;1.49;99.99
68977;SHT31;56029;52.568;13.588;2023-12-07T02:06:12;1.40;99.99
68977;SHT31;56029;52.568;13.588;2023-12-07T02:08:37;1.46;99.99
68977;SHT31;56029;52.568;13.588;2023-12-07T02:11:03;1.50;99.99
68977;SHT31;56029;52.568;13.588;2023-12-07T02:13:29;1.49;99.99
68977;SHT31;56029;52.568;13.588;2023-12-07T02:15:55;1.47;99.99
68977;SHT31;56029;52.568;13.588;2023-12-07T02:18:34;1.52;99.99
68977;SHT31;56029;52.568;13.588;2023-12-07T02:21:28;1.49;99.99
68977;SHT31;56029;52.568;13.588;2023-12-07T02:23:56;1.49;99.99
68977;SHT31;56029;52.568;13.588;2023-12-07T02:26:30;1.52;99.99
68977;SHT31;56029;52.568;13.588;2023-12-07T02:28:55;1.52;99.99
68977;SHT31;56029;52.568;13.588;2023-12-07T02:31:21;1.50;99.99
68977;SHT31;56029;52.568;13.588;2023-12-07T02:33:46;1.52;99.99
68977;SHT31;56029;52.568;13.588;2023-12-07T02:36:14;1.50;99.99
68977;SHT31;56029;52.568;13.588;2023-12-07T02:38:41;1.49;99.99
68977;SHT31;56029;52.568;13.588;2023-12-07T02:41:07;1.50;99.99
68977;SHT31;56029;52.568;13.588;2023-12-07T02:43:33;1.52;99.99
68977;SHT31;56029;52.568;13.588;2023-12-07T02:45:59;1.50;99.99
68977;SHT31;56029;52.568;13.588;2023-12-07T02:48:25;1.52;99.99
68977;SHT31;56029;52.568;13.588;2023-12-07T02:50:50;1.50;99.99
68977;SHT31;56029;52.568;13.588;2023-12-07T02:53:16;1.50;99.99
68977;SHT31;56029;52.568;13.588;2023-12-07T02:55:41;1.49;99.99
68977;SHT31;56029;52.568;13.588;2023-12-07T02:58:07;1.53;99.99
68977;SHT31;56029;52.568;13.588;2023-12-07T03:00:32;1.49;99.99
68977;SHT31;56029;52.568;13.588;2023-12-07T03:02:58;1.53;99.99
68977;SHT31;56029;52.568;13.588;2023-12-07T03:05:23;1.49;99.99
68977;SHT31;56029;52.568;13.588;2023-12-07T03:07:49;1.52;99.99
68977;SHT31;56029;52.568;13.588;2023-12-07T03:10:14;1.49;99.99
68977;SHT31;56029;52.568;13.588;2023-12-07T03:12:40;1.53;99.99
68977;SHT31;56029;52.568;13.588;2023-12-07T03:15:06;1.52;99.99
68977;SHT31;56029;52.568;13.588;2023-12-07T03:17:32;1.52;99.99
68977;SHT31;56029;52.568;13.588;2023-12-07T03:19:57;1.47;99.99
68977;SHT31;56029;52.568;13.588;2023-12-07T03:22:23;1.50;99.99
68977;SHT31;56029;52.568;13.588;2023-12-07T03:24:50;1.49;99.99
68977;SHT31;56029;52.568;13.588;2023-12-07T03:27:16;1.49;99.99
68977;SHT31;56029;52.568;13.588;2023-12-07T03:29:42;1.50;99.99
68977;SHT31;56029;52.568;13.588;2023-12-07T03:32:08;1.50;99.99
68977;SHT31;56029;52.568;13.588;2023-12-07T03:34:33;1.50;99.99
68977;SHT31;56029;52.568;13.588;2023-12-07T03:36:59;1.49;99.99
68977;SHT31;56029;52.568;13.588;2023-12-07T03:39:24;1.49;99.99
68977;SHT31;56029;52.568;13.588;2023-12-07T03:41:50;1.49;99.99
68977;SHT31;56029;52.568;13.588;2023-12-07T03:44:15;1.49;99.99
68977;SHT31;56029;52.568;13.588;2023-12-07T03:46:41;1.50;99.99
68977;SHT31;56029;52.568;13.588;2023-12-07T03:49:06;1.49;99.99
68977;SHT31;56029;52.568;13.588;2023-12-07T03:51:32;1.49;99.99
68977;SHT31;56029;52.568;13.588;2023-12-07T03:53:57;1.50;99.99
68977;SHT31;56029;52.568;13.588;2023-12-07T03:56:27;1.52;99.99
68977;SHT31;56029;52.568;13.588;2023-12-07T03:58:53;1.50;99.99
68977;SHT31;56029;52.568;13.588;2023-12-07T04:01:27;1.53;99.99
68977;SHT31;56029;52.568;13.588;2023-12-07T04:03:53;1.52;99.99
68977;SHT31;56029;52.568;13.588;2023-12-07T04:06:19;1.54;99.99
68977;SHT31;56029;52.568;13.588;2023-12-07T04:08:44;1.54;99.99
68977;SHT31;56029;52.568;13.588;2023-12-07T04:11:10;1.53;99.99
68977;SHT31;56029;52.568;13.588;2023-12-07T04:13:36;1.52;99.99
68977;SHT31;56029;52.568;13.588;2023-12-07T04:16:02;1.50;99.99
68977;SHT31;56029;52.568;13.588;2023-12-07T04:18:27;1.50;99.99
68977;SHT31;56029;52.568;13.588;2023-12-07T04:20:53;1.53;99.99
68977;SHT31;56029;52.568;13.588;2023-12-07T04:23:18;1.52;99.99
68977;SHT31;56029;52.568;13.588;2023-12-07T04:25:44;1.52;99.99
68977;SHT31;56029;52.568;13.588;2023-12-07T04:28:09;1.50;99.99
68977;SHT31;56029;52.568;13.588;2023-12-07T04:30:35;1.43;99.99
68977;SHT31;56029;52.568;13.588;2023-12-07T04:33:01;1.43;99.99
68977;SHT31;56029;52.568;13.588;2023-12-07T04:35:26;1.42;99.99
68977;SHT31;56029;52.568;13.588;2023-12-07T04:37:52;1.44;99.99
68977;SHT31;56029;52.568;13.588;2023-12-07T04:40:17;1.35;99.99
68977;SHT31;56029;52.568;13.588;2023-12-07T04:42:43;1.42;99.99
68977;SHT31;56029;52.568;13.588;2023-12-07T04:45:09;1.43;99.99
68977;SHT31;56029;52.568;13.588;2023-12-07T04:47:34;1.44;99.99
68977;SHT31;56029;52.568;13.588;2023-12-07T04:50:00;1.47;99.99
68977;SHT31;56029;52.568;13.588;2023-12-07T04:52:25;1.50;99.99
68977;SHT31;56029;52.568;13.588;2023-12-07T04:54:51;1.53;99.99
68977;SHT31;56029;52.568;13.588;2023-12-07T04:57:16;1.42;99.99
68977;SHT31;56029;52.568;13.588;2023-12-07T04:59:42;1.46;99.99
68977;SHT31;56029;52.568;13.588;2023-12-07T05:02:07;1.43;99.99
68977;SHT31;56029;52.568;13.588;2023-12-07T05:04:33;1.44;99.99
68977;SHT31;56029;52.568;13.588;2023-12-07T05:06:59;1.47;99.99
68977;SHT31;56029;52.568;13.588;2023-12-07T05:09:24;1.50;99.99
68977;SHT31;56029;52.568;13.588;2023-12-07T05:11:50;1.49;99.99
68977;SHT31;56029;52.568;13.588;2023-12-07T05:14:15;1.49;99.99
68977;SHT31;56029;52.568;13.588;2023-12-07T05:16:41;1.52;99.99
68977;SHT31;56029;52.568;13.588;2023-12-07T05:19:06;1.46;99.99
68977;SHT31;56029;52.568;13.588;2023-12-07T05:21:32;1.47;99.99
68977;SHT31;56029;52.568;13.588;2023-12-07T05:23:57;1.47;99.99
68977;SHT31;56029;52.568;13.588;2023-12-07T05:26:23;1.50;99.99
68977;SHT31;56029;52.568;13.588;2023-12-07T05:28:48;1.53;99.99
68977;SHT31;56029;52.568;13.588;2023-12-07T05:31:17;1.53;99.99
68977;SHT31;56029;52.568;13.588;2023-12-07T05:33:43;1.57;99.99
68977;SHT31;56029;52.568;13.588;2023-12-07T05:36:09;1.57;99.99
68977;SHT31;56029;52.568;13.588;2023-12-07T05:38:34;1.56;99.99
68977;SHT31;56029;52.568;13.588;2023-12-07T05:41:00;1.57;99.99
68977;SHT31;56029;52.568;13.588;2023-12-07T05:43:26;1.54;99.99
68977;SHT31;56029;52.568;13.588;2023-12-07T05:45:51;1.53;99.99
68977;SHT31;56029;52.568;13.588;2023-12-07T05:48:17;1.52;99.99
68977;SHT31;56029;52.568;13.588;2023-12-07T05:50:42;1.50;99.99
68977;SHT31;56029;52.568;13.588;2023-12-07T05:53:08;1.47;99.99
68977;SHT31;56029;52.568;13.588;2023-12-07T05:55:33;1.47;99.99
68977;SHT31;56029;52.568;13.588;2023-12-07T05:57:59;1.44;99.99
68977;SHT31;56029;52.568;13.588;2023-12-07T06:00:24;1.49;99.99
68977;SHT31;56029;52.568;13.588;2023-12-07T06:02:50;1.52;99.99
68977;SHT31;56029;52.568;13.588;2023-12-07T06:05:15;1.50;99.99
68977;SHT31;56029;52.568;13.588;2023-12-07T06:07:41;1.47;99.99
68977;SHT31;56029;52.568;13.588;2023-12-07T06:10:06;1.50;99.99
68977;SHT31;56029;52.568;13.588;2023-12-07T06:12:32;1.52;99.99
68977;SHT31;56029;52.568;13.588;2023-12-07T06:14:58;1.49;99.99
68977;SHT31;56029;52.568;13.588;2023-12-07T06:17:23;1.52;99.99
68977;SHT31;56029;52.568;13.588;2023-12-07T06:19:49;1.53;99.99
68977;SHT31;56029;52.568;13.588;2023-12-07T06:22:14;1.53;99.99
68977;SHT31;56029;52.568;13.588;2023-12-07T06:24:40;1.52;99.99
68977;SHT31;56029;52.568;13.588;2023-12-07T06:27:05;1.52;99.99
68977;SHT31;56029;52.568;13.588;2023-12-07T06:29:31;1.53;99.99
68977;SHT31;56029;52.568;13.588;2023-12-07T06:31:56;1.53;99.99
68977;SHT31;56029;52.568;13.588;2023-12-07T06:34:22;1.53;99.99
68977;SHT31;56029;52.568;13.588;2023-12-07T06:36:48;1.49;99.99
68977;SHT31;56029;52.568;13.588;2023-12-07T06:39:13;1.50;99.99
68977;SHT31;56029;52.568;13.588;2023-12-07T06:41:39;1.44;99.99
68977;SHT31;56029;52.568;13.588;2023-12-07T06:44:06;1.42;99.99
68977;SHT31;56029;52.568;13.588;2023-12-07T06:46:31;1.38;99.99
68977;SHT31;56029;52.568;13.588;2023-12-07T06:48:57;1.36;99.99
68977;SHT31;56029;52.568;13.588;2023-12-07T06:51:23;1.40;99.99
68977;SHT31;56029;52.568;13.588;2023-12-07T06:53:48;1.44;99.99
68977;SHT31;56029;52.568;13.588;2023-12-07T06:56:14;1.44;99.99
68977;SHT31;56029;52.568;13.588;2023-12-07T06:58:39;1.44;99.99
68977;SHT31;56029;52.568;13.588;2023-12-07T07:01:05;1.47;99.99
68977;SHT31;56029;52.568;13.588;2023-12-07T07:03:30;1.46;99.99
68977;SHT31;56029;52.568;13.588;2023-12-07T07:05:56;1.46;99.99
68977;SHT31;56029;52.568;13.588;2023-12-07T07:08:21;1.49;99.99
68977;SHT31;56029;52.568;13.588;2023-12-07T07:10:47;1.49;99.99
68977;SHT31;56029;52.568;13.588;2023-12-07T07:13:12;1.52;99.99
68977;SHT31;56029;52.568;13.588;2023-12-07T07:15:38;1.53;99.99
68977;SHT31;56029;52.568;13.588;2023-12-07T07:18:03;1.57;99.99
68977;SHT31;56029;52.568;13.588;2023-12-07T07:20:29;1.57;99.99
68977;SHT31;56029;52.568;13.588;2023-12-07T07:22:54;1.60;99.99
68977;SHT31;56029;52.568;13.588;2023-12-07T07:25:20;1.60;99.99
68977;SHT31;56029;52.568;13.588;2023-12-07T07:27:46;1.60;99.99
68977;SHT31;56029;52.568;13.588;2023-12-07T07:30:12;1.60;99.99
68977;SHT31;56029;52.568;13.588;2023-12-07T07:32:37;1.62;99.99
68977;SHT31;56029;52.568;13.588;2023-12-07T07:35:03;1.66;99.99
68977;SHT31;56029;52.568;13.588;2023-12-07T07:37:29;1.68;99.99
68977;SHT31;56029;52.568;13.588;2023-12-07T07:39:54;1.70;99.99
68977;SHT31;56029;52.568;13.588;2023-12-07T07:42:20;1.73;99.99
68977;SHT31;56029;52.568;13.588;2023-12-07T07:44:45;1.77;99.99
68977;SHT31;56029;52.568;13.588;2023-12-07T07:47:11;1.80;99.99
68977;SHT31;56029;52.568;13.588;2023-12-07T07:49:36;1.81;99.99
68977;SHT31;56029;52.568;13.588;2023-12-07T07:52:02;1.84;99.99
68977;SHT31;56029;52.568;13.588;2023-12-07T07:54:28;1.83;99.99
68977;SHT31;56029;52.568;13.588;2023-12-07T07:56:53;1.84;99.99
68977;SHT31;56029;52.568;13.588;2023-12-07T07:59:19;1.84;99.99
68977;SHT31;56029;52.568;13.588;2023-12-07T08:01:45;1.87;99.99
68977;SHT31;56029;52.568;13.588;2023-12-07T08:04:11;1.90;99.99
68977;SHT31;56029;52.568;13.588;2023-12-07T08:06:36;1.88;99.99
68977;SHT31;56029;52.568;13.588;2023-12-07T08:09:02;1.91;99.99
68977;SHT31;56029;52.568;13.588;2023-12-07T08:11:27;1.91;99.99
68977;SHT31;56029;52.568;13.588;2023-12-07T08:13:53;1.94;99.99
68977;SHT31;56029;52.568;13.588;2023-12-07T08:16:18;1.95;99.99
68977;SHT31;56029;52.568;13.588;2023-12-07T08:18:44;1.91;99.99
68977;SHT31;56029;52.568;13.588;2023-12-07T08:21:18;1.91;99.99
68977;SHT31;56029;52.568;13.588;2023-12-07T08:23:44;1.95;99.99
68977;SHT31;56029;52.568;13.588;2023-12-07T08:26:09;2.01;99.99
68977;SHT31;56029;52.568;13.588;2023-12-07T08:28:35;1.87;99.99
68977;SHT31;56029;52.568;13.588;2023-12-07T08:31:00;1.97;99.99
68977;SHT31;56029;52.568;13.588;2023-12-07T08:33:26;1.98;99.99
68977;SHT31;56029;52.568;13.588;2023-12-07T08:35:51;2.00;99.99
68977;SHT31;56029;52.568;13.588;2023-12-07T08:38:17;1.94;99.99
68977;SHT31;56029;52.568;13.588;2023-12-07T08:40:43;1.87;99.99
68977;SHT31;56029;52.568;13.588;2023-12-07T08:43:08;1.83;99.99
68977;SHT31;56029;52.568;13.588;2023-12-07T08:45:34;1.75;99.99
68977;SHT31;56029;52.568;13.588;2023-12-07T08:47:59;1.78;99.99
68977;SHT31;56029;52.568;13.588;2023-12-07T08:50:25;1.74;99.99
68977;SHT31;56029;52.568;13.588;2023-12-07T08:52:50;1.85;99.99
68977;SHT31;56029;52.568;13.588;2023-12-07T08:55:16;1.94;99.99
68977;SHT31;56029;52.568;13.588;2023-12-07T08:57:41;1.91;99.99
68977;SHT31;56029;52.568;13.588;2023-12-07T09:00:07;1.98;99.99
68977;SHT31;56029;52.568;13.588;2023-12-07T09:02:33;2.05;99.99
68977;SHT31;56029;52.568;13.588;2023-12-07T09:04:58;2.12;99.99
68977;SHT31;56029;52.568;13.588;2023-12-07T09:07:24;2.17;99.99
68977;SHT31;56029;52.568;13.588;2023-12-07T09:09:49;2.15;99.99
68977;SHT31;56029;52.568;13.588;2023-12-07T09:12:15;2.21;99.99
68977;SHT31;56029;52.568;13.588;2023-12-07T09:14:40;2.21;99.99
68977;SHT31;56029;52.568;13.588;2023-12-07T09:17:06;2.20;99.99
68977;SHT31;56029;52.568;13.588;2023-12-07T09:19:31;2.17;99.99
68977;SHT31;56029;52.568;13.588;2023-12-07T09:21:57;2.15;99.99
68977;SHT31;56029;52.568;13.588;2023-12-07T09:24:22;2.05;99.99
68977;SHT31;56029;52.568;13.588;2023-12-07T09:26:48;1.87;99.99
68977;SHT31;56029;52.568;13.588;2023-12-07T09:29:13;2.04;99.99
68977;SHT31;56029;52.568;13.588;2023-12-07T09:31:39;2.10;99.99
68977;SHT31;56029;52.568;13.588;2023-12-07T09:34:04;2.14;99.99
68977;SHT31;56029;52.568;13.588;2023-12-07T09:36:30;2.26;99.99
68977;SHT31;56029;52.568;13.588;2023-12-07T09:38:55;2.33;99.99
68977;SHT31;56029;52.568;13.588;2023-12-07T09:41:22;2.28;99.76
68977;SHT31;56029;52.568;13.588;2023-12-07T09:43:48;2.26;99.60
68977;SHT31;56029;52.568;13.588;2023-12-07T09:46:14;2.29;99.67
68977;SHT31;56029;52.568;13.588;2023-12-07T09:48:42;2.35;99.53
68977;SHT31;56029;52.568;13.588;2023-12-07T09:51:09;2.35;99.38
68977;SHT31;56029;52.568;13.588;2023-12-07T09:53:35;2.32;99.05
68977;SHT31;56029;52.568;13.588;2023-12-07T09:56:01;2.28;99.27
68977;SHT31;56029;52.568;13.588;2023-12-07T09:58:26;2.31;99.24
68977;SHT31;56029;52.568;13.588;2023-12-07T10:00:52;2.29;99.21
68977;SHT31;56029;52.568;13.588;2023-12-07T10:03:21;2.28;99.38
68977;SHT31;56029;52.568;13.588;2023-12-07T10:05:58;2.26;99.26
68977;SHT31;56029;52.568;13.588;2023-12-07T10:11:03;2.21;99.49
68977;SHT31;56029;52.568;13.588;2023-12-07T10:13:30;2.07;99.62
68977;SHT31;56029;52.568;13.588;2023-12-07T10:16:12;2.02;99.91
68977;SHT31;56029;52.568;13.588;2023-12-07T10:18:39;1.98;99.99
68977;SHT31;56029;52.568;13.588;2023-12-07T10:21:05;1.98;99.99
68977;SHT31;56029;52.568;13.588;2023-12-07T10:23:30;1.97;99.99
68977;SHT31;56029;52.568;13.588;2023-12-07T10:25:56;2.05;99.99
68977;SHT31;56029;52.568;13.588;2023-12-07T10:28:21;2.05;99.99
68977;SHT31;56029;52.568;13.588;2023-12-07T10:30:47;2.11;99.99
68977;SHT31;56029;52.568;13.588;2023-12-07T10:33:12;2.14;99.75
68977;SHT31;56029;52.568;13.588;2023-12-07T10:35:42;2.24;99.63
68977;SHT31;56029;52.568;13.588;2023-12-07T10:38:10;2.25;99.37
68977;SHT31;56029;52.568;13.588;2023-12-07T10:40:36;2.26;99.11
68977;SHT31;56029;52.568;13.588;2023-12-07T10:43:05;2.28;99.08
68977;SHT31;56029;52.568;13.588;2023-12-07T10:45:31;2.29;99.05
68977;SHT31;56029;52.568;13.588;2023-12-07T10:48:03;2.25;99.00
68977;SHT31;56029;52.568;13.588;2023-12-07T10:50:32;2.32;98.90
68977;SHT31;56029;52.568;13.588;2023-12-07T10:53:04;2.42;98.74
68977;SHT31;56029;52.568;13.588;2023-12-07T10:55:34;2.42;98.18
68977;SHT31;56029;52.568;13.588;2023-12-07T10:58:02;2.45;98.62
68977;SHT31;56029;52.568;13.588;2023-12-07T11:00:29;2.48;97.93
68977;SHT31;56029;52.568;13.588;2023-12-07T11:02:55;2.50;97.60
68977;SHT31;56029;52.568;13.588;2023-12-07T11:05:21;2.49;97.60
68977;SHT31;56029;52.568;13.588;2023-12-07T11:07:54;2.48;97.36
68977;SHT31;56029;52.568;13.588;2023-12-07T11:10:32;2.38;97.89
68977;SHT31;56029;52.568;13.588;2023-12-07T11:15:42;2.54;98.17
68977;SHT31;56029;52.568;13.588;2023-12-07T11:18:08;2.60;97.61
68977;SHT31;56029;52.568;13.588;2023-12-07T11:20:45;2.60;97.30
68977;SHT31;56029;52.568;13.588;2023-12-07T11:23:11;2.48;97.00
68977;SHT31;56029;52.568;13.588;2023-12-07T11:25:37;2.33;97.35
68977;SHT31;56029;52.568;13.588;2023-12-07T11:28:04;2.26;97.52
68977;SHT31;56029;52.568;13.588;2023-12-07T11:30:31;2.32;97.78
68977;SHT31;56029;52.568;13.588;2023-12-07T11:32:57;2.46;98.12
68977;SHT31;56029;52.568;13.588;2023-12-07T11:35:23;2.45;97.60
68977;SHT31;56029;52.568;13.588;2023-12-07T11:38:02;2.56;97.87
68977;SHT31;56029;52.568;13.588;2023-12-07T11:40:30;2.57;96.90
68977;SHT31;56029;52.568;13.588;2023-12-07T11:42:55;2.63;96.65
68977;SHT31;56029;52.568;13.588;2023-12-07T11:45:36;2.75;96.66
68977;SHT31;56029;52.568;13.588;2023-12-07T11:48:12;2.75;96.62
68977;SHT31;56029;52.568;13.588;2023-12-07T11:50:56;2.77;96.77
68977;SHT31;56029;52.568;13.588;2023-12-07T11:53:29;2.76;96.14
68977;SHT31;56029;52.568;13.588;2023-12-07T11:55:56;2.87;96.80
68977;SHT31;56029;52.568;13.588;2023-12-07T11:58:22;2.97;96.43
68977;SHT31;56029;52.568;13.588;2023-12-07T12:00:47;2.99;95.86
68977;SHT31;56029;52.568;13.588;2023-12-07T12:03:15;2.96;95.81
68977;SHT31;56029;52.568;13.588;2023-12-07T12:05:42;2.93;95.99
68977;SHT31;56029;52.568;13.588;2023-12-07T12:08:07;2.91;96.00
68977;SHT31;56029;52.568;13.588;2023-12-07T12:10:33;2.83;95.85
68977;SHT31;56029;52.568;13.588;2023-12-07T12:13:02;2.66;95.92
68977;SHT31;56029;52.568;13.588;2023-12-07T12:15:28;2.63;96.60
68977;SHT31;56029;52.568;13.588;2023-12-07T12:17:55;2.62;96.88
68977;SHT31;56029;52.568;13.588;2023-12-07T12:20:21;2.63;97.07
68977;SHT31;56029;52.568;13.588;2023-12-07T12:22:47;2.62;96.95
68977;SHT31;56029;52.568;13.588;2023-12-07T12:25:12;2.53;96.96
68977;SHT31;56029;52.568;13.588;2023-12-07T12:27:39;2.42;97.43
68977;SHT31;56029;52.568;13.588;2023-12-07T12:30:06;2.33;97.90
68977;SHT31;56029;52.568;13.588;2023-12-07T12:32:47;2.35;98.13
68977;SHT31;56029;52.568;13.588;2023-12-07T12:35:13;2.33;98.25
68977;SHT31;56029;52.568;13.588;2023-12-07T12:37:39;2.26;98.77
68977;SHT31;56029;52.568;13.588;2023-12-07T12:40:06;2.25;99.17
68977;SHT31;56029;52.568;13.588;2023-12-07T12:42:32;2.33;99.47
68977;SHT31;56029;52.568;13.588;2023-12-07T12:44:58;2.41;99.35
68977;SHT31;56029;52.568;13.588;2023-12-07T12:47:24;2.48;99.17
68977;SHT31;56029;52.568;13.588;2023-12-07T12:49:49;2.53;98.99
68977;SHT31;56029;52.568;13.588;2023-12-07T12:52:15;2.45;98.85
68977;SHT31;56029;52.568;13.588;2023-12-07T12:54:43;2.45;98.90
68977;SHT31;56029;52.568;13.588;2023-12-07T12:57:09;2.45;99.16
68977;SHT31;56029;52.568;13.588;2023-12-07T12:59:35;2.45;99.21
68977;SHT31;56029;52.568;13.588;2023-12-07T13:02:00;2.43;99.29
68977;SHT31;56029;52.568;13.588;2023-12-07T13:04:26;2.43;99.49
68977;SHT31;56029;52.568;13.588;2023-12-07T13:06:51;2.41;99.92
68977;SHT31;56029;52.568;13.588;2023-12-07T13:09:17;2.46;99.91
68977;SHT31;56029;52.568;13.588;2023-12-07T13:11:42;2.42;99.99
68977;SHT31;56029;52.568;13.588;2023-12-07T13:14:08;2.43;99.99
68977;SHT31;56029;52.568;13.588;2023-12-07T13:16:33;2.33;99.99
68977;SHT31;56029;52.568;13.588;2023-12-07T13:18:59;2.29;99.99
68977;SHT31;56029;52.568;13.588;2023-12-07T13:21:24;2.26;99.99
68977;SHT31;56029;52.568;13.588;2023-12-07T13:23:50;2.28;99.99
68977;SHT31;56029;52.568;13.588;2023-12-07T13:26:15;2.26;99.99
68977;SHT31;56029;52.568;13.588;2023-12-07T13:28:41;2.26;99.99
68977;SHT31;56029;52.568;13.588;2023-12-07T13:31:06;2.28;99.99
68977;SHT31;56029;52.568;13.588;2023-12-07T13:33:32;2.31;99.99
68977;SHT31;56029;52.568;13.588;2023-12-07T13:35:57;2.26;99.99
68977;SHT31;56029;52.568;13.588;2023-12-07T13:38:23;2.15;99.99
68977;SHT31;56029;52.568;13.588;2023-12-07T13:40:48;2.15;99.99
68977;SHT31;56029;52.568;13.588;2023-12-07T13:43:14;2.20;99.99
68977;SHT31;56029;52.568;13.588;2023-12-07T13:45:40;2.28;99.99
68977;SHT31;56029;52.568;13.588;2023-12-07T13:48:06;2.26;99.99
68977;SHT31;56029;52.568;13.588;2023-12-07T13:50:31;2.24;99.99
68977;SHT31;56029;52.568;13.588;2023-12-07T13:52:57;2.15;99.99
68977;SHT31;56029;52.568;13.588;2023-12-07T13:55:22;2.10;99.99
68977;SHT31;56029;52.568;13.588;2023-12-07T13:57:48;2.05;99.99
68977;SHT31;56029;52.568;13.588;2023-12-07T14:00:14;2.08;99.99
68977;SHT31;56029;52.568;13.588;2023-12-07T14:02:39;2.11;99.99
68977;SHT31;56029;52.568;13.588;2023-12-07T14:05:05;2.14;99.99
68977;SHT31;56029;52.568;13.588;2023-12-07T14:07:31;2.11;99.99
68977;SHT31;56029;52.568;13.588;2023-12-07T14:09:56;2.11;99.99
68977;SHT31;56029;52.568;13.588;2023-12-07T14:12:22;2.11;99.99
68977;SHT31;56029;52.568;13.588;2023-12-07T14:14:47;2.07;99.99
68977;SHT31;56029;52.568;13.588;2023-12-07T14:17:14;2.01;99.99
68977;SHT31;56029;52.568;13.588;2023-12-07T14:19:40;2.00;99.99
68977;SHT31;56029;52.568;13.588;2023-12-07T14:22:06;2.02;99.99
68977;SHT31;56029;52.568;13.588;2023-12-07T14:24:31;2.02;99.99
68977;SHT31;56029;52.568;13.588;2023-12-07T14:26:57;2.04;99.99
68977;SHT31;56029;52.568;13.588;2023-12-07T14:29:23;2.14;99.99
68977;SHT31;56029;52.568;13.588;2023-12-07T14:31:49;2.17;99.99
68977;SHT31;56029;52.568;13.588;2023-12-07T14:34:15;2.20;99.99
68977;SHT31;56029;52.568;13.588;2023-12-07T14:36:41;2.17;99.99
68977;SHT31;56029;52.568;13.588;2023-12-07T14:39:07;2.15;99.99
68977;SHT31;56029;52.568;13.588;2023-12-07T14:41:33;2.12;99.99
68977;SHT31;56029;52.568;13.588;2023-12-07T14:43:59;2.12;99.99
68977;SHT31;56029;52.568;13.588;2023-12-07T14:46:25;2.11;99.99
68977;SHT31;56029;52.568;13.588;2023-12-07T14:48:50;2.11;99.99
68977;SHT31;56029;52.568;13.588;2023-12-07T14:51:19;2.11;99.99
68977;SHT31;56029;52.568;13.588;2023-12-07T14:53:44;2.08;99.99
68977;SHT31;56029;52.568;13.588;2023-12-07T14:56:10;2.10;99.99
68977;SHT31;56029;52.568;13.588;2023-12-07T14:58:35;2.08;99.99
68977;SHT31;56029;52.568;13.588;2023-12-07T15:01:02;2.11;99.99
68977;SHT31;56029;52.568;13.588;2023-12-07T15:03:27;2.12;99.99
68977;SHT31;56029;52.568;13.588;2023-12-07T15:05:53;2.10;99.99
68977;SHT31;56029;52.568;13.588;2023-12-07T15:08:18;2.08;99.99
68977;SHT31;56029;52.568;13.588;2023-12-07T15:10:45;2.08;99.99
68977;SHT31;56029;52.568;13.588;2023-12-07T15:13:10;2.07;99.99
68977;SHT31;56029;52.568;13.588;2023-12-07T15:15:36;2.10;99.99
68977;SHT31;56029;52.568;13.588;2023-12-07T15:18:01;2.08;99.99
68977;SHT31;56029;52.568;13.588;2023-12-07T15:20:27;2.08;99.99
68977;SHT31;56029;52.568;13.588;2023-12-07T15:22:52;2.08;99.99
68977;SHT31;56029;52.568;13.588;2023-12-07T15:25:18;2.12;99.99
68977;SHT31;56029;52.568;13.588;2023-12-07T15:27:43;2.11;99.99